Sigas Ingrid — VRCQ6 — position and weather

sailwx.info

Track history (hours):
 
Tides and Currents Weather Stations Pressure Air Temp Water Temp Dewpoint Dewpoint Depression Visibility Wind Speed Wind Dir Waves Ship Positions

Sigas Ingrid

Last reported at 2017-Sep-18 09:01 UTC. Time now 2017-Sep-21 16:12 UTC.
Position N 22°50' E 117°37'.

Length 100 m; draft 5.3 m.

Type: Ship (hazmat cat B). MMSI: 477658800.

Date/timePositionNaut miles runAvg speedWind from/ knotsBaromVisibWave heightAir tempDewpointWater temp
2017-Sep-18 09:01N 22°50' E 117°37'012.8
2017-Sep-18 09:00N 22°50' E 117°37'913.1
2017-Sep-18 08:18N 22°58' E 117°33'413.1
2017-Sep-18 08:00N 23°02' E 117°31'9 0.3
2017-Sep-16 21:42N 22°57' E 117°40'314.7
2017-Sep-16 21:30N 22°55' E 117°41'1114.1
2017-Sep-16 20:43N 22°45' E 117°46'314.6
2017-Sep-16 20:29N 22°42' E 117°48'714.1
2017-Sep-16 19:59N 22°36' E 117°52'6613.2
2017-Sep-16 14:58N 22°21' E 119°02'713.7
2017-Sep-16 14:28N 22°20' E 119°09'3913.4
2017-Sep-16 11:35N 22°04' E 119°47'2212.9
2017-Sep-16 09:52N 21°56' E 120°09'  
Track history (hours):
 
Tides and Currents Weather Stations Pressure Air Temp Water Temp Dewpoint Dewpoint Depression Visibility Wind Speed Wind Dir Waves Ship Positions

Sigas Ingrid

Last reported at 2017-Sep-18 09:01 UTC. Time now 2017-Sep-21 16:12 UTC.
Position N 22°50' E 117°37'.

Length 100 m; draft 5.3 m.

Type: Ship (hazmat cat B). MMSI: 477658800.

Date/timePositionNaut miles runAvg speedWind from/ knotsBaromVisibWave heightAir tempDewpointWater temp
2017-Sep-18 09:01N 22°50' E 117°37'012.8
2017-Sep-18 09:00N 22°50' E 117°37'913.1
2017-Sep-18 08:18N 22°58' E 117°33'413.1
2017-Sep-18 08:00N 23°02' E 117°31'9 0.3
2017-Sep-16 21:42N 22°57' E 117°40'314.7
2017-Sep-16 21:30N 22°55' E 117°41'1114.1
2017-Sep-16 20:43N 22°45' E 117°46'314.6
2017-Sep-16 20:29N 22°42' E 117°48'714.1
2017-Sep-16 19:59N 22°36' E 117°52'6613.2
2017-Sep-16 14:58N 22°21' E 119°02'713.7
2017-Sep-16 14:28N 22°20' E 119°09'3913.4
2017-Sep-16 11:35N 22°04' E 119°47'2212.9
2017-Sep-16 09:52N 21°56' E 120°09'  

Dump ship's entire track history